sensor_id;sensor_type;location;lat;lon;timestamp;P1;durP1;ratioP1;P2;durP2;ratioP2
7747;SDS011;3918;42.564;23.164;2022-10-16T05:01:04;6.40;;;5.43;;
7747;SDS011;3918;42.564;23.164;2022-10-16T05:03:31;8.90;;;5.97;;
7747;SDS011;3918;42.564;23.164;2022-10-16T05:05:57;7.43;;;6.03;;
7747;SDS011;3918;42.564;23.164;2022-10-16T05:08:24;9.73;;;6.57;;
7747;SDS011;3918;42.564;23.164;2022-10-16T05:10:51;7.40;;;6.20;;
7747;SDS011;3918;42.564;23.164;2022-10-16T05:13:18;7.55;;;6.40;;
7747;SDS011;3918;42.564;23.164;2022-10-16T05:15:46;7.43;;;6.28;;
7747;SDS011;3918;42.564;23.164;2022-10-16T05:18:14;7.05;;;6.05;;
7747;SDS011;3918;42.564;23.164;2022-10-16T05:20:41;12.02;;;8.20;;
7747;SDS011;3918;42.564;23.164;2022-10-16T05:23:08;15.90;;;11.05;;
7747;SDS011;3918;42.564;23.164;2022-10-16T05:25:36;20.15;;;11.38;;
7747;SDS011;3918;42.564;23.164;2022-10-16T05:28:03;18.25;;;8.10;;
7747;SDS011;3918;42.564;23.164;2022-10-16T05:30:30;7.95;;;6.10;;
7747;SDS011;3918;42.564;23.164;2022-10-16T05:32:57;8.50;;;5.25;;
7747;SDS011;3918;42.564;23.164;2022-10-16T05:35:25;7.22;;;5.43;;
7747;SDS011;3918;42.564;23.164;2022-10-16T05:37:52;9.38;;;5.30;;
7747;SDS011;3918;42.564;23.164;2022-10-16T05:40:19;7.95;;;5.05;;
7747;SDS011;3918;42.564;23.164;2022-10-16T05:42:45;5.38;;;4.30;;
7747;SDS011;3918;42.564;23.164;2022-10-16T05:45:12;9.77;;;4.88;;
7747;SDS011;3918;42.564;23.164;2022-10-16T05:47:39;9.68;;;5.40;;
7747;SDS011;3918;42.564;23.164;2022-10-16T05:50:06;7.65;;;5.05;;
7747;SDS011;3918;42.564;23.164;2022-10-16T05:52:35;8.90;;;4.30;;
7747;SDS011;3918;42.564;23.164;2022-10-16T05:55:02;6.03;;;4.05;;
7747;SDS011;3918;42.564;23.164;2022-10-16T05:57:29;7.80;;;4.43;;
7747;SDS011;3918;42.564;23.164;2022-10-16T05:59:56;7.35;;;4.25;;
7747;SDS011;3918;42.564;23.164;2022-10-16T06:02:23;7.57;;;4.55;;
7747;SDS011;3918;42.564;23.164;2022-10-16T06:04:51;10.18;;;5.22;;
7747;SDS011;3918;42.564;23.164;2022-10-16T06:07:18;6.03;;;4.82;;
7747;SDS011;3918;42.564;23.164;2022-10-16T06:09:48;12.88;;;5.20;;
7747;SDS011;3918;42.564;23.164;2022-10-16T06:12:15;8.95;;;4.97;;
7747;SDS011;3918;42.564;23.164;2022-10-16T06:14:42;6.38;;;4.43;;
7747;SDS011;3918;42.564;23.164;2022-10-16T06:17:10;8.35;;;6.40;;
7747;SDS011;3918;42.564;23.164;2022-10-16T06:19:37;14.43;;;8.20;;
7747;SDS011;3918;42.564;23.164;2022-10-16T06:22:03;12.80;;;8.75;;
7747;SDS011;3918;42.564;23.164;2022-10-16T06:24:30;8.77;;;6.72;;
7747;SDS011;3918;42.564;23.164;2022-10-16T06:26:58;14.50;;;5.80;;
7747;SDS011;3918;42.564;23.164;2022-10-16T06:29:25;11.75;;;4.95;;
7747;SDS011;3918;42.564;23.164;2022-10-16T06:31:52;5.22;;;4.30;;
7747;SDS011;3918;42.564;23.164;2022-10-16T06:34:19;7.45;;;4.18;;
7747;SDS011;3918;42.564;23.164;2022-10-16T06:36:46;9.48;;;4.50;;
7747;SDS011;3918;42.564;23.164;2022-10-16T06:39:13;8.50;;;4.15;;
7747;SDS011;3918;42.564;23.164;2022-10-16T06:41:40;5.40;;;4.13;;
7747;SDS011;3918;42.564;23.164;2022-10-16T06:44:08;7.35;;;3.72;;
7747;SDS011;3918;42.564;23.164;2022-10-16T06:46:35;5.10;;;3.85;;
7747;SDS011;3918;42.564;23.164;2022-10-16T06:49:02;5.82;;;3.78;;
7747;SDS011;3918;42.564;23.164;2022-10-16T06:51:29;6.43;;;4.07;;
7747;SDS011;3918;42.564;23.164;2022-10-16T06:53:57;5.50;;;4.00;;
7747;SDS011;3918;42.564;23.164;2022-10-16T06:56:24;9.32;;;3.83;;
7747;SDS011;3918;42.564;23.164;2022-10-16T06:58:53;10.35;;;4.53;;
7747;SDS011;3918;42.564;23.164;2022-10-16T07:01:22;13.82;;;4.15;;
7747;SDS011;3918;42.564;23.164;2022-10-16T07:03:50;4.10;;;3.40;;
7747;SDS011;3918;42.564;23.164;2022-10-16T07:06:18;5.53;;;3.00;;
7747;SDS011;3918;42.564;23.164;2022-10-16T07:08:46;10.43;;;4.18;;
7747;SDS011;3918;42.564;23.164;2022-10-16T07:11:15;3.85;;;3.33;;
7747;SDS011;3918;42.564;23.164;2022-10-16T07:13:43;6.50;;;3.33;;
7747;SDS011;3918;42.564;23.164;2022-10-16T07:16:12;6.85;;;3.80;;
7747;SDS011;3918;42.564;23.164;2022-10-16T07:18:43;5.82;;;4.40;;
7747;SDS011;3918;42.564;23.164;2022-10-16T07:21:12;5.00;;;4.00;;
7747;SDS011;3918;42.564;23.164;2022-10-16T07:23:40;6.25;;;4.20;;
7747;SDS011;3918;42.564;23.164;2022-10-16T07:26:07;8.18;;;4.32;;
7747;SDS011;3918;42.564;23.164;2022-10-16T07:28:35;7.50;;;4.03;;
7747;SDS011;3918;42.564;23.164;2022-10-16T07:31:02;5.45;;;4.13;;
7747;SDS011;3918;42.564;23.164;2022-10-16T07:33:30;7.80;;;4.43;;
7747;SDS011;3918;42.564;23.164;2022-10-16T07:35:58;6.00;;;4.32;;
7747;SDS011;3918;42.564;23.164;2022-10-16T07:38:25;6.65;;;4.28;;
7747;SDS011;3918;42.564;23.164;2022-10-16T07:40:55;9.27;;;4.18;;
7747;SDS011;3918;42.564;23.164;2022-10-16T07:43:22;11.60;;;4.57;;
7747;SDS011;3918;42.564;23.164;2022-10-16T07:45:50;5.70;;;3.67;;
7747;SDS011;3918;42.564;23.164;2022-10-16T07:48:17;6.50;;;4.05;;
7747;SDS011;3918;42.564;23.164;2022-10-16T07:50:44;7.53;;;4.43;;
7747;SDS011;3918;42.564;23.164;2022-10-16T07:53:13;6.15;;;3.92;;
7747;SDS011;3918;42.564;23.164;2022-10-16T07:55:40;14.70;;;5.10;;
7747;SDS011;3918;42.564;23.164;2022-10-16T07:58:06;9.68;;;5.28;;
7747;SDS011;3918;42.564;23.164;2022-10-16T08:00:33;4.57;;;4.00;;
7747;SDS011;3918;42.564;23.164;2022-10-16T08:03:00;8.02;;;4.18;;
7747;SDS011;3918;42.564;23.164;2022-10-16T08:05:27;9.13;;;3.60;;
7747;SDS011;3918;42.564;23.164;2022-10-16T08:07:54;8.40;;;4.60;;
7747;SDS011;3918;42.564;23.164;2022-10-16T08:10:23;7.80;;;4.18;;
7747;SDS011;3918;42.564;23.164;2022-10-16T08:12:51;14.20;;;4.68;;
7747;SDS011;3918;42.564;23.164;2022-10-16T08:15:19;11.85;;;4.90;;
7747;SDS011;3918;42.564;23.164;2022-10-16T08:17:53;6.53;;;4.32;;
7747;SDS011;3918;42.564;23.164;2022-10-16T08:20:20;7.05;;;4.70;;
7747;SDS011;3918;42.564;23.164;2022-10-16T08:22:47;7.65;;;4.43;;
7747;SDS011;3918;42.564;23.164;2022-10-16T08:25:14;9.15;;;4.57;;
7747;SDS011;3918;42.564;23.164;2022-10-16T08:27:42;5.93;;;4.78;;
7747;SDS011;3918;42.564;23.164;2022-10-16T08:30:10;7.75;;;5.53;;
7747;SDS011;3918;42.564;23.164;2022-10-16T08:32:37;9.05;;;4.95;;
7747;SDS011;3918;42.564;23.164;2022-10-16T08:35:04;12.85;;;5.68;;
7747;SDS011;3918;42.564;23.164;2022-10-16T08:37:31;9.75;;;5.43;;
7747;SDS011;3918;42.564;23.164;2022-10-16T08:39:58;11.25;;;6.30;;
7747;SDS011;3918;42.564;23.164;2022-10-16T08:42:29;9.48;;;6.10;;
7747;SDS011;3918;42.564;23.164;2022-10-16T08:45:10;13.63;;;5.85;;
7747;SDS011;3918;42.564;23.164;2022-10-16T08:47:48;10.75;;;6.05;;
7747;SDS011;3918;42.564;23.164;2022-10-16T08:50:22;8.93;;;5.22;;
7747;SDS011;3918;42.564;23.164;2022-10-16T08:52:52;12.93;;;6.30;;
7747;SDS011;3918;42.564;23.164;2022-10-16T08:55:29;11.90;;;5.90;;
7747;SDS011;3918;42.564;23.164;2022-10-16T08:58:00;11.80;;;5.78;;
7747;SDS011;3918;42.564;23.164;2022-10-16T09:00:28;15.98;;;6.10;;
7747;SDS011;3918;42.564;23.164;2022-10-16T09:02:59;8.63;;;5.60;;
7747;SDS011;3918;42.564;23.164;2022-10-16T09:08:32;11.05;;;5.90;;
7747;SDS011;3918;42.564;23.164;2022-10-16T09:11:10;8.98;;;4.97;;
7747;SDS011;3918;42.564;23.164;2022-10-16T09:13:45;8.20;;;5.22;;
7747;SDS011;3918;42.564;23.164;2022-10-16T09:16:19;7.25;;;5.25;;
7747;SDS011;3918;42.564;23.164;2022-10-16T09:18:52;7.50;;;5.47;;
7747;SDS011;3918;42.564;23.164;2022-10-16T09:21:25;9.10;;;4.90;;
7747;SDS011;3918;42.564;23.164;2022-10-16T09:23:56;5.57;;;4.65;;
7747;SDS011;3918;42.564;23.164;2022-10-16T09:26:25;9.23;;;4.82;;
7747;SDS011;3918;42.564;23.164;2022-10-16T09:28:52;6.50;;;4.65;;
7747;SDS011;3918;42.564;23.164;2022-10-16T09:31:21;5.85;;;4.75;;
7747;SDS011;3918;42.564;23.164;2022-10-16T09:33:50;6.20;;;4.78;;
7747;SDS011;3918;42.564;23.164;2022-10-16T09:36:20;7.15;;;4.40;;
7747;SDS011;3918;42.564;23.164;2022-10-16T09:38:50;7.00;;;4.88;;
7747;SDS011;3918;42.564;23.164;2022-10-16T09:41:29;23.80;;;6.53;;
7747;SDS011;3918;42.564;23.164;2022-10-16T09:43:56;10.15;;;4.80;;
7747;SDS011;3918;42.564;23.164;2022-10-16T09:46:27;5.88;;;3.90;;
7747;SDS011;3918;42.564;23.164;2022-10-16T09:48:56;5.97;;;4.45;;
7747;SDS011;3918;42.564;23.164;2022-10-16T09:51:25;9.65;;;4.10;;
7747;SDS011;3918;42.564;23.164;2022-10-16T09:53:54;6.47;;;4.35;;
7747;SDS011;3918;42.564;23.164;2022-10-16T09:56:23;6.68;;;4.60;;
7747;SDS011;3918;42.564;23.164;2022-10-16T09:58:52;7.15;;;4.30;;
7747;SDS011;3918;42.564;23.164;2022-10-16T10:01:21;8.75;;;4.32;;
7747;SDS011;3918;42.564;23.164;2022-10-16T10:03:55;4.60;;;3.85;;
7747;SDS011;3918;42.564;23.164;2022-10-16T10:06:27;9.90;;;5.07;;
7747;SDS011;3918;42.564;23.164;2022-10-16T10:08:56;10.02;;;5.57;;
7747;SDS011;3918;42.564;23.164;2022-10-16T10:11:42;9.38;;;5.00;;
7747;SDS011;3918;42.564;23.164;2022-10-16T10:14:15;7.13;;;4.70;;
7747;SDS011;3918;42.564;23.164;2022-10-16T10:16:45;16.75;;;4.45;;
7747;SDS011;3918;42.564;23.164;2022-10-16T10:19:15;8.73;;;4.55;;
7747;SDS011;3918;42.564;23.164;2022-10-16T10:21:43;8.95;;;3.85;;
7747;SDS011;3918;42.564;23.164;2022-10-16T10:24:10;8.60;;;4.03;;
7747;SDS011;3918;42.564;23.164;2022-10-16T10:26:38;5.68;;;4.07;;
7747;SDS011;3918;42.564;23.164;2022-10-16T10:29:13;8.25;;;4.35;;
7747;SDS011;3918;42.564;23.164;2022-10-16T10:31:53;5.50;;;4.05;;
7747;SDS011;3918;42.564;23.164;2022-10-16T10:34:35;6.47;;;4.30;;
7747;SDS011;3918;42.564;23.164;2022-10-16T10:37:16;6.05;;;3.70;;
7747;SDS011;3918;42.564;23.164;2022-10-16T10:39:58;8.60;;;3.47;;
7747;SDS011;3918;42.564;23.164;2022-10-16T10:42:34;4.78;;;4.10;;
7747;SDS011;3918;42.564;23.164;2022-10-16T10:48:09;8.13;;;3.78;;
7747;SDS011;3918;42.564;23.164;2022-10-16T10:50:48;5.30;;;3.70;;
7747;SDS011;3918;42.564;23.164;2022-10-16T10:53:21;4.68;;;4.05;;
7747;SDS011;3918;42.564;23.164;2022-10-16T10:56:04;6.95;;;3.53;;
7747;SDS011;3918;42.564;23.164;2022-10-16T11:01:45;4.50;;;4.03;;
7747;SDS011;3918;42.564;23.164;2022-10-16T11:04:27;5.90;;;4.05;;
7747;SDS011;3918;42.564;23.164;2022-10-16T11:07:09;8.90;;;4.15;;
7747;SDS011;3918;42.564;23.164;2022-10-16T11:09:42;7.30;;;3.90;;
7747;SDS011;3918;42.564;23.164;2022-10-16T11:12:14;5.15;;;3.65;;
7747;SDS011;3918;42.564;23.164;2022-10-16T11:14:47;9.15;;;3.67;;
7747;SDS011;3918;42.564;23.164;2022-10-16T11:17:22;3.65;;;3.22;;
7747;SDS011;3918;42.564;23.164;2022-10-16T11:19:54;5.70;;;3.63;;
7747;SDS011;3918;42.564;23.164;2022-10-16T11:22:27;4.05;;;3.65;;
7747;SDS011;3918;42.564;23.164;2022-10-16T11:25:00;9.88;;;3.90;;
7747;SDS011;3918;42.564;23.164;2022-10-16T11:27:36;3.95;;;3.25;;
7747;SDS011;3918;42.564;23.164;2022-10-16T11:30:06;23.35;;;4.50;;
7747;SDS011;3918;42.564;23.164;2022-10-16T11:32:44;4.22;;;3.50;;
7747;SDS011;3918;42.564;23.164;2022-10-16T11:35:22;4.95;;;3.60;;
7747;SDS011;3918;42.564;23.164;2022-10-16T11:37:52;16.00;;;4.18;;
7747;SDS011;3918;42.564;23.164;2022-10-16T11:40:24;5.30;;;3.53;;
7747;SDS011;3918;42.564;23.164;2022-10-16T11:42:54;3.72;;;3.17;;
7747;SDS011;3918;42.564;23.164;2022-10-16T11:45:30;3.40;;;3.10;;
7747;SDS011;3918;42.564;23.164;2022-10-16T11:48:02;3.20;;;2.90;;
7747;SDS011;3918;42.564;23.164;2022-10-16T11:50:41;5.13;;;2.95;;
7747;SDS011;3918;42.564;23.164;2022-10-16T11:53:16;3.53;;;3.22;;
7747;SDS011;3918;42.564;23.164;2022-10-16T11:55:49;3.22;;;2.92;;
7747;SDS011;3918;42.564;23.164;2022-10-16T11:58:20;4.70;;;3.15;;
7747;SDS011;3918;42.564;23.164;2022-10-16T12:00:53;3.15;;;2.70;;
7747;SDS011;3918;42.564;23.164;2022-10-16T12:03:26;4.47;;;2.90;;
7747;SDS011;3918;42.564;23.164;2022-10-16T12:08:51;3.58;;;2.72;;
7747;SDS011;3918;42.564;23.164;2022-10-16T12:11:24;2.92;;;2.58;;
7747;SDS011;3918;42.564;23.164;2022-10-16T12:14:05;4.95;;;3.22;;
7747;SDS011;3918;42.564;23.164;2022-10-16T12:16:34;3.63;;;3.08;;
7747;SDS011;3918;42.564;23.164;2022-10-16T12:19:11;3.20;;;2.85;;
7747;SDS011;3918;42.564;23.164;2022-10-16T12:21:40;2.80;;;2.38;;
7747;SDS011;3918;42.564;23.164;2022-10-16T12:24:19;3.60;;;2.97;;
7747;SDS011;3918;42.564;23.164;2022-10-16T12:26:58;7.03;;;2.58;;
7747;SDS011;3918;42.564;23.164;2022-10-16T12:29:29;7.10;;;2.88;;
7747;SDS011;3918;42.564;23.164;2022-10-16T12:32:20;4.07;;;2.63;;
7747;SDS011;3918;42.564;23.164;2022-10-16T12:34:54;3.97;;;2.15;;
7747;SDS011;3918;42.564;23.164;2022-10-16T12:37:21;26.60;;;3.47;;
7747;SDS011;3918;42.564;23.164;2022-10-16T12:39:51;2.97;;;2.58;;
7747;SDS011;3918;42.564;23.164;2022-10-16T12:42:22;3.10;;;2.60;;
7747;SDS011;3918;42.564;23.164;2022-10-16T12:44:57;3.75;;;2.67;;
7747;SDS011;3918;42.564;23.164;2022-10-16T12:47:34;4.40;;;2.80;;
7747;SDS011;3918;42.564;23.164;2022-10-16T12:50:03;10.57;;;3.10;;
7747;SDS011;3918;42.564;23.164;2022-10-16T12:52:49;7.15;;;3.10;;
7747;SDS011;3918;42.564;23.164;2022-10-16T12:55:17;8.20;;;2.85;;
7747;SDS011;3918;42.564;23.164;2022-10-16T12:57:50;3.28;;;2.67;;
7747;SDS011;3918;42.564;23.164;2022-10-16T13:00:32;3.45;;;2.88;;
7747;SDS011;3918;42.564;23.164;2022-10-16T13:06:28;13.45;;;4.10;;
7747;SDS011;3918;42.564;23.164;2022-10-16T13:09:07;2.92;;;2.25;;
7747;SDS011;3918;42.564;23.164;2022-10-16T13:11:50;3.53;;;2.90;;
7747;SDS011;3918;42.564;23.164;2022-10-16T13:14:29;2.85;;;2.55;;
7747;SDS011;3918;42.564;23.164;2022-10-16T13:17:11;2.75;;;2.25;;
7747;SDS011;3918;42.564;23.164;2022-10-16T13:19:50;3.03;;;2.42;;
7747;SDS011;3918;42.564;23.164;2022-10-16T13:22:25;4.93;;;2.03;;
7747;SDS011;3918;42.564;23.164;2022-10-16T13:25:02;3.72;;;2.17;;
7747;SDS011;3918;42.564;23.164;2022-10-16T13:27:43;4.72;;;2.15;;
7747;SDS011;3918;42.564;23.164;2022-10-16T13:30:17;3.63;;;2.58;;
7747;SDS011;3918;42.564;23.164;2022-10-16T13:32:47;2.85;;;2.28;;
7747;SDS011;3918;42.564;23.164;2022-10-16T13:35:20;4.43;;;2.55;;
7747;SDS011;3918;42.564;23.164;2022-10-16T13:37:48;3.05;;;2.22;;
7747;SDS011;3918;42.564;23.164;2022-10-16T13:40:19;4.07;;;2.60;;
7747;SDS011;3918;42.564;23.164;2022-10-16T13:42:50;2.75;;;1.60;;
7747;SDS011;3918;42.564;23.164;2022-10-16T13:45:19;3.35;;;1.83;;
7747;SDS011;3918;42.564;23.164;2022-10-16T13:47:47;2.10;;;1.90;;
7747;SDS011;3918;42.564;23.164;2022-10-16T13:50:15;2.47;;;2.10;;
7747;SDS011;3918;42.564;23.164;2022-10-16T13:52:43;4.07;;;2.10;;
7747;SDS011;3918;42.564;23.164;2022-10-16T13:55:10;2.92;;;2.45;;
7747;SDS011;3918;42.564;23.164;2022-10-16T13:57:38;1.75;;;1.65;;
7747;SDS011;3918;42.564;23.164;2022-10-16T14:00:18;3.10;;;2.30;;
7747;SDS011;3918;42.564;23.164;2022-10-16T14:02:49;3.10;;;2.28;;
7747;SDS011;3918;42.564;23.164;2022-10-16T14:05:19;2.00;;;1.80;;
7747;SDS011;3918;42.564;23.164;2022-10-16T14:07:47;2.55;;;2.35;;
7747;SDS011;3918;42.564;23.164;2022-10-16T14:10:20;3.20;;;2.20;;
7747;SDS011;3918;42.564;23.164;2022-10-16T14:12:56;2.65;;;2.38;;
7747;SDS011;3918;42.564;23.164;2022-10-16T14:15:26;2.50;;;2.30;;
7747;SDS011;3918;42.564;23.164;2022-10-16T14:17:53;2.75;;;2.38;;
7747;SDS011;3918;42.564;23.164;2022-10-16T14:20:22;3.30;;;2.20;;
7747;SDS011;3918;42.564;23.164;2022-10-16T14:22:58;2.95;;;2.55;;
7747;SDS011;3918;42.564;23.164;2022-10-16T14:25:27;2.80;;;2.15;;
7747;SDS011;3918;42.564;23.164;2022-10-16T14:28:02;4.13;;;2.30;;
7747;SDS011;3918;42.564;23.164;2022-10-16T14:30:32;3.17;;;2.33;;
7747;SDS011;3918;42.564;23.164;2022-10-16T14:33:01;6.38;;;2.60;;
7747;SDS011;3918;42.564;23.164;2022-10-16T14:35:30;3.97;;;2.60;;
7747;SDS011;3918;42.564;23.164;2022-10-16T14:37:58;3.33;;;2.10;;
7747;SDS011;3918;42.564;23.164;2022-10-16T14:40:27;3.65;;;2.85;;
7747;SDS011;3918;42.564;23.164;2022-10-16T14:42:55;6.03;;;2.28;;
7747;SDS011;3918;42.564;23.164;2022-10-16T14:45:23;4.78;;;2.53;;
7747;SDS011;3918;42.564;23.164;2022-10-16T14:47:54;3.05;;;2.60;;
7747;SDS011;3918;42.564;23.164;2022-10-16T14:50:23;3.13;;;2.50;;
7747;SDS011;3918;42.564;23.164;2022-10-16T14:52:50;4.65;;;2.67;;
7747;SDS011;3918;42.564;23.164;2022-10-16T14:55:17;5.07;;;2.30;;
7747;SDS011;3918;42.564;23.164;2022-10-16T14:57:44;4.72;;;2.22;;
7747;SDS011;3918;42.564;23.164;2022-10-16T15:00:15;4.55;;;2.65;;
7747;SDS011;3918;42.564;23.164;2022-10-16T15:02:44;3.00;;;2.50;;
7747;SDS011;3918;42.564;23.164;2022-10-16T15:05:14;3.22;;;2.00;;
7747;SDS011;3918;42.564;23.164;2022-10-16T15:07:42;5.55;;;2.10;;
7747;SDS011;3918;42.564;23.164;2022-10-16T15:10:10;3.28;;;2.65;;
7747;SDS011;3918;42.564;23.164;2022-10-16T15:12:37;5.50;;;2.33;;
7747;SDS011;3918;42.564;23.164;2022-10-16T15:17:58;2.55;;;2.35;;
7747;SDS011;3918;42.564;23.164;2022-10-16T15:20:27;2.75;;;2.55;;
7747;SDS011;3918;42.564;23.164;2022-10-16T15:22:56;17.75;;;4.13;;
7747;SDS011;3918;42.564;23.164;2022-10-16T15:25:34;4.93;;;3.00;;
7747;SDS011;3918;42.564;23.164;2022-10-16T15:28:05;8.15;;;5.10;;
7747;SDS011;3918;42.564;23.164;2022-10-16T15:30:32;11.40;;;5.65;;
7747;SDS011;3918;42.564;23.164;2022-10-16T15:32:59;5.68;;;2.92;;
7747;SDS011;3918;42.564;23.164;2022-10-16T15:35:27;15.35;;;9.10;;
7747;SDS011;3918;42.564;23.164;2022-10-16T15:37:56;14.32;;;6.93;;
7747;SDS011;3918;42.564;23.164;2022-10-16T15:40:23;7.97;;;4.35;;
7747;SDS011;3918;42.564;23.164;2022-10-16T15:42:50;4.88;;;2.88;;
7747;SDS011;3918;42.564;23.164;2022-10-16T15:45:17;10.38;;;4.72;;
7747;SDS011;3918;42.564;23.164;2022-10-16T15:47:44;6.97;;;3.20;;
7747;SDS011;3918;42.564;23.164;2022-10-16T15:50:11;17.85;;;5.53;;
7747;SDS011;3918;42.564;23.164;2022-10-16T15:52:40;3.28;;;2.97;;
7747;SDS011;3918;42.564;23.164;2022-10-16T15:55:08;2.78;;;2.53;;
7747;SDS011;3918;42.564;23.164;2022-10-16T15:57:35;16.50;;;7.47;;
7747;SDS011;3918;42.564;23.164;2022-10-16T16:00:05;6.38;;;3.22;;
7747;SDS011;3918;42.564;23.164;2022-10-16T16:02:33;5.38;;;4.65;;
7747;SDS011;3918;42.564;23.164;2022-10-16T16:05:00;5.53;;;4.30;;
7747;SDS011;3918;42.564;23.164;2022-10-16T16:07:27;8.20;;;3.65;;
7747;SDS011;3918;42.564;23.164;2022-10-16T16:09:55;4.40;;;3.00;;
7747;SDS011;3918;42.564;23.164;2022-10-16T16:12:22;3.47;;;2.53;;
7747;SDS011;3918;42.564;23.164;2022-10-16T16:14:48;4.13;;;2.75;;
7747;SDS011;3918;42.564;23.164;2022-10-16T16:17:16;4.05;;;2.83;;
7747;SDS011;3918;42.564;23.164;2022-10-16T16:19:43;4.32;;;3.35;;
7747;SDS011;3918;42.564;23.164;2022-10-16T16:22:10;3.10;;;2.72;;
7747;SDS011;3918;42.564;23.164;2022-10-16T16:24:36;3.67;;;2.67;;
7747;SDS011;3918;42.564;23.164;2022-10-16T16:27:05;3.45;;;3.15;;
7747;SDS011;3918;42.564;23.164;2022-10-16T16:29:32;7.57;;;4.75;;
7747;SDS011;3918;42.564;23.164;2022-10-16T16:31:59;5.93;;;4.35;;
7747;SDS011;3918;42.564;23.164;2022-10-16T16:34:26;6.38;;;4.38;;
7747;SDS011;3918;42.564;23.164;2022-10-16T16:36:54;4.82;;;2.85;;
7747;SDS011;3918;42.564;23.164;2022-10-16T16:39:21;4.40;;;2.78;;
7747;SDS011;3918;42.564;23.164;2022-10-16T16:41:49;4.63;;;3.45;;
7747;SDS011;3918;42.564;23.164;2022-10-16T16:44:17;7.85;;;3.97;;
7747;SDS011;3918;42.564;23.164;2022-10-16T16:46:44;5.80;;;3.70;;
7747;SDS011;3918;42.564;23.164;2022-10-16T16:49:11;5.03;;;4.15;;
7747;SDS011;3918;42.564;23.164;2022-10-16T16:51:40;6.05;;;4.40;;
7747;SDS011;3918;42.564;23.164;2022-10-16T16:54:07;8.68;;;4.10;;
7747;SDS011;3918;42.564;23.164;2022-10-16T16:56:35;8.07;;;4.40;;
7747;SDS011;3918;42.564;23.164;2022-10-16T16:59:02;6.28;;;3.78;;
7747;SDS011;3918;42.564;23.164;2022-10-16T17:01:31;9.25;;;3.60;;
7747;SDS011;3918;42.564;23.164;2022-10-16T17:03:58;6.03;;;4.00;;
7747;SDS011;3918;42.564;23.164;2022-10-16T17:06:27;6.25;;;3.60;;
7747;SDS011;3918;42.564;23.164;2022-10-16T17:08:55;4.10;;;3.40;;
7747;SDS011;3918;42.564;23.164;2022-10-16T17:11:23;6.47;;;3.83;;
7747;SDS011;3918;42.564;23.164;2022-10-16T17:13:52;5.32;;;3.30;;
7747;SDS011;3918;42.564;23.164;2022-10-16T17:16:21;3.80;;;3.38;;
7747;SDS011;3918;42.564;23.164;2022-10-16T17:18:50;3.30;;;3.00;;
7747;SDS011;3918;42.564;23.164;2022-10-16T17:21:18;5.75;;;3.75;;
7747;SDS011;3918;42.564;23.164;2022-10-16T17:23:45;4.15;;;2.88;;
7747;SDS011;3918;42.564;23.164;2022-10-16T17:26:13;4.95;;;3.20;;
7747;SDS011;3918;42.564;23.164;2022-10-16T17:28:42;3.70;;;3.33;;
7747;SDS011;3918;42.564;23.164;2022-10-16T17:31:09;6.57;;;4.57;;
7747;SDS011;3918;42.564;23.164;2022-10-16T17:33:37;5.03;;;4.10;;
7747;SDS011;3918;42.564;23.164;2022-10-16T17:36:05;6.20;;;4.28;;
7747;SDS011;3918;42.564;23.164;2022-10-16T17:38:33;7.53;;;4.10;;
7747;SDS011;3918;42.564;23.164;2022-10-16T17:41:09;4.75;;;3.05;;
7747;SDS011;3918;42.564;23.164;2022-10-16T17:43:36;5.18;;;3.92;;
7747;SDS011;3918;42.564;23.164;2022-10-16T17:46:03;2.88;;;2.67;;
7747;SDS011;3918;42.564;23.164;2022-10-16T17:48:31;2.45;;;2.25;;
7747;SDS011;3918;42.564;23.164;2022-10-16T17:50:58;5.10;;;3.08;;
7747;SDS011;3918;42.564;23.164;2022-10-16T17:53:26;4.95;;;3.60;;
7747;SDS011;3918;42.564;23.164;2022-10-16T17:55:52;6.13;;;3.42;;
7747;SDS011;3918;42.564;23.164;2022-10-16T17:58:23;3.90;;;2.92;;
7747;SDS011;3918;42.564;23.164;2022-10-16T18:00:50;3.60;;;2.70;;
7747;SDS011;3918;42.564;23.164;2022-10-16T18:03:16;4.15;;;3.15;;
7747;SDS011;3918;42.564;23.164;2022-10-16T18:05:43;2.75;;;2.28;;
7747;SDS011;3918;42.564;23.164;2022-10-16T18:08:10;5.43;;;2.95;;
7747;SDS011;3918;42.564;23.164;2022-10-16T18:10:45;3.38;;;2.90;;
7747;SDS011;3918;42.564;23.164;2022-10-16T18:13:12;6.50;;;3.08;;
7747;SDS011;3918;42.564;23.164;2022-10-16T18:15:39;3.72;;;2.80;;
7747;SDS011;3918;42.564;23.164;2022-10-16T18:18:06;3.05;;;2.75;;
7747;SDS011;3918;42.564;23.164;2022-10-16T18:20:32;4.78;;;3.00;;
7747;SDS011;3918;42.564;23.164;2022-10-16T18:22:59;4.53;;;3.28;;
7747;SDS011;3918;42.564;23.164;2022-10-16T18:25:26;4.38;;;3.28;;
7747;SDS011;3918;42.564;23.164;2022-10-16T18:27:54;8.50;;;2.97;;
7747;SDS011;3918;42.564;23.164;2022-10-16T18:30:21;2.70;;;1.95;;
7747;SDS011;3918;42.564;23.164;2022-10-16T18:32:48;5.10;;;3.00;;
7747;SDS011;3918;42.564;23.164;2022-10-16T18:35:15;3.28;;;2.78;;
7747;SDS011;3918;42.564;23.164;2022-10-16T18:37:41;5.15;;;2.90;;
7747;SDS011;3918;42.564;23.164;2022-10-16T18:40:08;6.45;;;2.67;;
7747;SDS011;3918;42.564;23.164;2022-10-16T18:42:35;3.78;;;2.72;;
7747;SDS011;3918;42.564;23.164;2022-10-16T18:45:04;2.70;;;2.50;;
7747;SDS011;3918;42.564;23.164;2022-10-16T18:47:31;2.65;;;2.28;;
7747;SDS011;3918;42.564;23.164;2022-10-16T18:49:58;6.53;;;2.90;;
7747;SDS011;3918;42.564;23.164;2022-10-16T18:52:25;6.07;;;4.68;;
7747;SDS011;3918;42.564;23.164;2022-10-16T18:54:54;6.28;;;3.67;;
7747;SDS011;3918;42.564;23.164;2022-10-16T18:57:22;4.97;;;3.28;;
7747;SDS011;3918;42.564;23.164;2022-10-16T18:59:48;25.63;;;15.25;;
